Thunder radar more information blitzortung!


Radar de pluja more information rain snow radar


Visita la nostra xarxa de llocs de meteo:

Template documentation
and downloads

And another site



No particular awareness of the weather is required.    There are no Weather-warnings

Pagina Historial Weather Underground text

Diari Resum Agost 26, 2017 Unitats:  Mètric    Imperial   Tant
« Previous Dia
SegĂźent Dia »
Diari Setmana Mensual Anual Personalitzada
  Maxima: Minima: Media:
Temperatura: -17.8 °C -6.4 °C -3 °C
Punt de rosada: -17.8 °C -8.3 °C -7.5 °C
Humitat: Humidity % 45 % 62 %
Wind Speed: 0 km/h 0 km/h 11.3 km/h
RĂ fegues de vent: 0 km/h - -
Vent:- - SE
Pression baro: 0 hPa 34327.3 hPa -
Precipitacions: 0 mm    
Historical Graphs
 
 
Dades de taula per Agost 26, 2017
Temps Temperatura Punt de rosada Pression baro Vent Wind Speed RĂ fegues de vent Humitat Rainfall Rate (Hourly)
-17.8 °C -17.8 °C 0 hPa Calm     Humidity % 0 mm
00:00 -4.9 °C -8.1 °C 34462.7 hPa West 6 km/h 7.6 km/h 70 % 0 mm
00:05 -4.8 °C -7.9 °C 34462.7 hPa West 7.6 km/h 7.6 km/h 71 % 0 mm
00:10 -4.9 °C -7.9 °C 34462.7 hPa West 9 km/h 9 km/h 71 % 0 mm
00:15 -4.8 °C -7.8 °C 34428.8 hPa WSW 6 km/h 6 km/h 72 % 0 mm
00:20 -4.9 °C -7.8 °C 34428.8 hPa NE 6 km/h   72 % 0 mm
00:30 -5.8 °C -7.9 °C 34361.1 hPa Calm   5.1 km/h 79 % 0 mm
00:40 -5.8 °C -7.9 °C 34361.1 hPa Calm     79 % 0 mm
00:50 -5.9 °C -8 °C 34361.1 hPa Calm     79 % 0 mm
01:00 -5.9 °C -8.1 °C 34361.1 hPa WNW 2.6 km/h 2.6 km/h 79 % 0 mm
01:10 -5.9 °C -7.9 °C 34361.1 hPa NE 2.6 km/h   80 % 0 mm
01:20 -6 °C -8 °C 34361.1 hPa Calm     80 % 0 mm
01:30 -6.1 °C -8.1 °C 34327.3 hPa Calm     80 % 0 mm
01:40 -6.1 °C -8.1 °C 34327.3 hPa Calm     80 % 0 mm
01:50 -6.1 °C -8.2 °C 34361.1 hPa WNW 5.1 km/h 5.1 km/h 79 % 0 mm
02:00 -6.2 °C -8.1 °C 34361.1 hPa Calm   5.1 km/h 81 % 0 mm
02:10 -6.1 °C -8.1 °C 34361.1 hPa Calm   5.1 km/h 80 % 0 mm
02:20 -6 °C -7.9 °C 34361.1 hPa Calm     81 % 0 mm
02:30 -5.9 °C -7.8 °C 34361.1 hPa West 2.6 km/h 5.1 km/h 81 % 0 mm
02:40 -5.9 °C -7.9 °C 34361.1 hPa ENE 2.6 km/h 5.1 km/h 80 % 0 mm
02:50 -6.1 °C -8.1 °C 34361.1 hPa NE 2.6 km/h 5.1 km/h 80 % 0 mm
03:00 -6.1 °C -8.1 °C 34361.1 hPa Calm     80 % 0 mm
03:10 -6.2 °C -8.1 °C 34361.1 hPa Calm     81 % 0 mm
03:20 -6.2 °C -8.1 °C 34395 hPa East 2.6 km/h 5.1 km/h 81 % 0 mm
03:30 -6.3 °C -8.2 °C 34361.1 hPa SSW 2.6 km/h 2.6 km/h 81 % 0 mm
03:40 -6.3 °C -8.1 °C 34361.1 hPa Calm   2.6 km/h 82 % 0 mm
03:50 -6.3 °C -8.1 °C 34395 hPa WSW 2.6 km/h 5.1 km/h 82 % 0 mm
04:00 -6.4 °C -8.2 °C 34361.1 hPa WSW 5.1 km/h 5.1 km/h 82 % 0 mm
04:10 -6.2 °C -7.9 °C 34361.1 hPa Calm   2.6 km/h 83 % 0 mm
04:20 -5.9 °C -7.7 °C 34361.1 hPa SSW 2.6 km/h 5.1 km/h 82 % 0 mm
04:30 -5.7 °C -7.7 °C 34395 hPa SE 2.6 km/h 5.1 km/h 80 % 0 mm
04:40 -5.4 °C -7.5 °C 34395 hPa Calm   5.1 km/h 79 % 0 mm
04:50 -5.2 °C -7.4 °C 34361.1 hPa Calm   5.1 km/h 78 % 0 mm
05:00 -5.1 °C -7.6 °C 34395 hPa NNE 5.1 km/h 10.3 km/h 76 % 0 mm
05:10 -4.9 °C -7.7 °C 34395 hPa NE 5.1 km/h 15.6 km/h 73 % 0 mm
05:20 -4.7 °C -7.8 °C 34361.1 hPa NE 7.7 km/h 15.6 km/h 71 % 0 mm
05:30 -4.4 °C -7.7 °C 34361.1 hPa NE 7.7 km/h 10.3 km/h 69 % 0 mm
05:40 -4.3 °C -7.9 °C 34361.1 hPa NE 5.1 km/h 20.8 km/h 67 % 0 mm
05:50 -3.9 °C -7.8 °C 34395 hPa NNE 7.7 km/h 15.6 km/h 65 % 0 mm
10:52 -2.9 °C -7.1 °C 34395 hPa NE 9 km/h 9 km/h 63 % 0 mm
10:53 -2.9 °C -7.1 °C 34395 hPa East 9 km/h 9 km/h 63 % 0 mm
10:55 -2.8 °C -7.2 °C 34395 hPa NNE 9 km/h 9 km/h 62 % 0 mm
11:00 -2.8 °C -7.3 °C 34395 hPa ENE 6.3 km/h 6.3 km/h 61 % 0 mm
11:05 -2.8 °C -7.4 °C 34395 hPa NE 11.9 km/h 11.9 km/h 60 % 0 mm
11:10 -2.7 °C -7.4 °C 34395 hPa WNW 6 km/h 6.3 km/h 60 % 0 mm
11:15 -2.4 °C -7.2 °C 34395 hPa West 5.1 km/h 5.1 km/h 60 % 0 mm
11:20 -2.1 °C -6.9 °C 34395 hPa NE 9 km/h 9 km/h 59 % 0 mm
11:25 -1.8 °C -7.1 °C 34395 hPa NE 6.3 km/h 6.3 km/h 57 % 0 mm
11:30 -1.9 °C -7.1 °C 34395 hPa ENE 6 km/h 6 km/h 57 % 0 mm
11:35 -1.8 °C -7.3 °C 34395 hPa ESE 9.3 km/h 9.3 km/h 55 % 0 mm
11:40 -1.9 °C -7.7 °C 34395 hPa NNE 9 km/h 9 km/h 53 % 0 mm
11:45 -1.7 °C -7.6 °C 34361.1 hPa East 11.9 km/h 11.9 km/h 53 % 0 mm
11:50 -1.3 °C -7.2 °C 34361.1 hPa ENE 6.3 km/h 6.3 km/h 53 % 0 mm
11:55 -1.7 °C -8.2 °C 34361.1 hPa SSE 15 km/h 15 km/h 49 % 0 mm
12:00 -1.6 °C -7.9 °C 34361.1 hPa NE 9 km/h 9 km/h 50 % 0 mm
12:05 -1.2 °C -7.7 °C 34361.1 hPa SE 9 km/h 9 km/h 49 % 0 mm
12:10 -1 °C -7.9 °C 34361.1 hPa SSE 11.9 km/h 11.9 km/h 47 % 0 mm
12:15 -0.8 °C -7.7 °C 34361.1 hPa SSE 6 km/h 6 km/h 48 % 0 mm
12:20 -0.7 °C -7.3 °C 34361.1 hPa SSW 11.9 km/h 11.9 km/h 49 % 0 mm
12:25 -1 °C -7.6 °C 34361.1 hPa South 17.9 km/h 17.9 km/h 49 % 0 mm
12:30 -0.9 °C -7.5 °C 34361.1 hPa East 12.7 km/h 12.7 km/h 49 % 0 mm
12:35 -0.7 °C -7.6 °C 34361.1 hPa ESE 11.9 km/h 11.9 km/h 48 % 0 mm
12:40 -0.8 °C -7.7 °C 34361.1 hPa ESE 15 km/h 15 km/h 48 % 0 mm
12:45 -0.9 °C -8.3 °C 34361.1 hPa ESE 9.3 km/h 9.3 km/h 45 % 0 mm
12:50 -0.7 °C -7.7 °C 34361.1 hPa South 17.9 km/h 17.9 km/h 47 % 0 mm
12:55 -0.3 °C -7.6 °C 34361.1 hPa SSE 11.9 km/h 11.9 km/h 46 % 0 mm
12:56 -0.2 °C -7.4 °C 34361.1 hPa ESE 15.3 km/h 15.3 km/h 46 % 0 mm
13:01 -0.6 °C -7.4 °C 34361.1 hPa ESE 20.9 km/h 20.9 km/h 48 % 0 mm
13:06 -0.6 °C -7.3 °C 34361.1 hPa ENE 15 km/h 15 km/h 49 % 0 mm
13:11 -0.8 °C -7.4 °C 34361.1 hPa ESE 17.9 km/h 17.9 km/h 49 % 0 mm
13:16 -0.6 °C -7.2 °C 34361.1 hPa East 17.9 km/h 17.9 km/h 49 % 0 mm
13:21 -0.6 °C -7.4 °C 34361.1 hPa ESE 24.3 km/h 24.3 km/h 48 % 0 mm
13:26 -0.6 °C -7.6 °C 34361.1 hPa ESE 22 km/h 22 km/h 47 % 0 mm
13:31 -0.3 °C -7.6 °C 34361.1 hPa ESE 23.8 km/h 23.8 km/h 46 % 0 mm
13:36 -0.6 °C -7.8 °C 34361.1 hPa ESE 16.6 km/h 16.6 km/h 46 % 0 mm
13:41 -0.4 °C -7.3 °C 34361.1 hPa ESE 27.2 km/h 27.2 km/h 48 % 0 mm
13:46 -0.5 °C -7.3 °C 34361.1 hPa ESE 23.8 km/h 23.8 km/h 48 % 0 mm
13:51 -0.5 °C -7.2 °C 34361.1 hPa SE 26.9 km/h 26.9 km/h 49 % 0 mm
13:56 -0.6 °C -7.1 °C 34327.3 hPa SSW 20.9 km/h 20.9 km/h 50 % 0 mm
14:01 -0.8 °C -7.1 °C 34327.3 hPa East 26.9 km/h 26.9 km/h 51 % 0 mm
14:06 -0.7 °C -7 °C 34327.3 hPa ESE 20.9 km/h 20.9 km/h 51 % 0 mm
14:11 -0.6 °C -6.9 °C 34361.1 hPa ESE 17.9 km/h 17.9 km/h 51 % 0 mm
14:16 -0.7 °C -7.1 °C 34361.1 hPa SE 26.9 km/h 26.9 km/h 50 % 0 mm
14:21 -0.6 °C -7.4 °C 34361.1 hPa ESE 19.2 km/h 19.2 km/h 48 % 0 mm
14:26 -0.4 °C -7.1 °C 34361.1 hPa ENE 14.5 km/h 14.5 km/h 49 % 0 mm
14:31 -0.7 °C -7.3 °C 34361.1 hPa SE 17.9 km/h 17.9 km/h 49 % 0 mm
14:36 -0.4 °C -7.1 °C 34361.1 hPa SE 10.3 km/h 10.3 km/h 49 % 0 mm
14:41 -0.7 °C -7.3 °C 34361.1 hPa East 23.8 km/h 23.8 km/h 49 % 0 mm
14:46 -0.7 °C -7.3 °C 34361.1 hPa ESE 11.9 km/h 12.2 km/h 49 % 0 mm
14:51 -0.4 °C -7.2 °C 34361.1 hPa SSE 15 km/h 15 km/h 48 % 0 mm
14:56 -0.6 °C -7.4 °C 34361.1 hPa SE 20.9 km/h 20.9 km/h 48 % 0 mm
15:01 -0.5 °C -7.3 °C 34361.1 hPa ENE 29.8 km/h 29.8 km/h 48 % 0 mm
15:06 -0.4 °C -7.4 °C 34361.1 hPa ESE 29.8 km/h 29.8 km/h 47 % 0 mm
15:11 -0.6 °C -7.4 °C 34361.1 hPa SW 23.8 km/h 23.8 km/h 48 % 0 mm
15:16 -0.5 °C -7.3 °C 34361.1 hPa ESE 15 km/h 15 km/h 48 % 0 mm
15:21 -0.7 °C -7.6 °C 34361.1 hPa ESE 20.9 km/h 20.9 km/h 48 % 0 mm
15:26 -0.9 °C -7.6 °C 34361.1 hPa East 32.8 km/h 32.8 km/h 49 % 0 mm
15:31 -0.9 °C -7.5 °C 34361.1 hPa ESE 20.9 km/h 20.9 km/h 49 % 0 mm
15:36 -0.9 °C -7.5 °C 34361.1 hPa SSE 23.8 km/h 23.8 km/h 49 % 0 mm
15:41 -0.9 °C -7.3 °C 34327.3 hPa ENE 23.8 km/h 23.8 km/h 50 % 0 mm
15:46 -0.8 °C -7.2 °C 34327.3 hPa ESE 20.9 km/h 20.9 km/h 50 % 0 mm
15:51 -1.1 °C -7.4 °C 34327.3 hPa ESE 26.4 km/h 26.4 km/h 50 % 0 mm
15:56 -1.2 °C -7.6 °C 34361.1 hPa ESE 20.9 km/h 20.9 km/h 50 % 0 mm
16:01 -1.2 °C -7.6 °C 34361.1 hPa SE 26.4 km/h 26.4 km/h 50 % 0 mm
16:06 -1.2 °C -7.6 °C 34361.1 hPa East 20.9 km/h 20.9 km/h 50 % 0 mm
16:11 -1.1 °C -7.4 °C 34361.1 hPa SW 15 km/h 15 km/h 50 % 0 mm
16:16 -1.2 °C -7.4 °C 34361.1 hPa ESE 27.2 km/h 27.2 km/h 51 % 0 mm
16:21 -1.2 °C -7.4 °C 34361.1 hPa SSE 23.8 km/h 23.8 km/h 51 % 0 mm
16:26 -1.2 °C -7.6 °C 34327.3 hPa ESE 20.9 km/h 20.9 km/h 50 % 0 mm
16:31 -1.2 °C -7.6 °C 34327.3 hPa ESE 20.9 km/h 20.9 km/h 50 % 0 mm
16:36 -1.1 °C -7.4 °C 34327.3 hPa ESE 17.9 km/h 17.9 km/h 50 % 0 mm
16:41 -1 °C -7.4 °C 34361.1 hPa ESE 17.9 km/h 17.9 km/h 50 % 0 mm
16:46 -0.9 °C -7.6 °C 34361.1 hPa ESE 32.8 km/h 32.8 km/h 49 % 0 mm
16:51 -0.9 °C -7.3 °C 34361.1 hPa ESE 16.6 km/h 16.6 km/h 50 % 0 mm
16:56 -1.1 °C -7.6 °C 34327.3 hPa ESE 20.9 km/h 20.9 km/h 50 % 0 mm
17:01 -0.9 °C -7.4 °C 34327.3 hPa ESE 15 km/h 15 km/h 50 % 0 mm
17:06 -1.1 °C -7.4 °C 34327.3 hPa ESE 32.8 km/h 32.8 km/h 50 % 0 mm
17:11 -0.9 °C -7.4 °C 34327.3 hPa ENE 20.9 km/h 20.9 km/h 50 % 0 mm
17:16 -0.9 °C -7.4 °C 34327.3 hPa ESE 20.9 km/h 20.9 km/h 50 % 0 mm
17:21 -1.1 °C -7.6 °C 34327.3 hPa ESE 17.9 km/h 17.9 km/h 50 % 0 mm
17:26 -1.1 °C -7.6 °C 34327.3 hPa ESE 29 km/h 29 km/h 50 % 0 mm
17:31 -1.3 °C -7.5 °C 34327.3 hPa ESE 20.9 km/h 20.9 km/h 51 % 0 mm
17:36 -1.1 °C -7.6 °C 34327.3 hPa SSE 15 km/h 15 km/h 50 % 0 mm
17:41 -1.2 °C -7.6 °C 34327.3 hPa NNE 17.9 km/h 17.9 km/h 50 % 0 mm
17:46 -1.3 °C -7.7 °C 34327.3 hPa ESE 20.9 km/h 20.9 km/h 50 % 0 mm
17:51 -1.2 °C -7.6 °C 34327.3 hPa ESE 20.9 km/h 20.9 km/h 50 % 0 mm
17:56 -1.4 °C -7.8 °C 34327.3 hPa ESE 19.2 km/h 19.2 km/h 50 % 0 mm
18:01 -1.3 °C -7.9 °C 34327.3 hPa ESE 15 km/h 15 km/h 49 % 0 mm
18:06 -1.3 °C -7.9 °C 34327.3 hPa ENE 16.1 km/h 16.1 km/h 49 % 0 mm
18:11 -1.3 °C -7.9 °C 34327.3 hPa East 17.9 km/h 17.9 km/h 49 % 0 mm
18:16 -1.4 °C -7.9 °C 34327.3 hPa ESE 25.1 km/h 25.1 km/h 49 % 0 mm
18:21 -1.5 °C -8.1 °C 34327.3 hPa ESE 27.2 km/h 27.2 km/h 49 % 0 mm
18:26 -1.6 °C -7.9 °C 34327.3 hPa East 20.9 km/h 20.9 km/h 50 % 0 mm
18:31 -1.6 °C -8 °C 34327.3 hPa ENE 26.9 km/h 26.9 km/h 50 % 0 mm
18:36 -1.6 °C -7.8 °C 34327.3 hPa East 23.8 km/h 23.8 km/h 51 % 0 mm
18:42 -1.7 °C -7.7 °C 34327.3 hPa ENE 26.9 km/h 26.9 km/h 52 % 0 mm
18:47 -1.7 °C -7.7 °C 34327.3 hPa SE 23.8 km/h 23.8 km/h 52 % 0 mm
18:52 -1.7 °C -7.6 °C 34327.3 hPa SE 20.9 km/h 20.9 km/h 53 % 0 mm
18:57 -1.9 °C -7.6 °C 34327.3 hPa SE 22 km/h 22 km/h 54 % 0 mm
19:02 -2.1 °C -7.6 °C 34327.3 hPa SE 26.9 km/h 26.9 km/h 55 % 0 mm
19:07 -2.2 °C -7.5 °C 34327.3 hPa ENE 20.9 km/h 20.9 km/h 56 % 0 mm
19:12 -2.2 °C -7.4 °C 34327.3 hPa ESE 17.9 km/h 17.9 km/h 57 % 0 mm
19:17 -2.4 °C -7.4 °C 34327.3 hPa ESE 26.9 km/h 26.9 km/h 58 % 0 mm
19:22 -2.5 °C -7.3 °C 34327.3 hPa ESE 23.8 km/h 23.8 km/h 59 % 0 mm
19:27 -2.6 °C -7.3 °C 34327.3 hPa ESE 20.9 km/h 20.9 km/h 60 % 0 mm
19:32 -2.7 °C -7.3 °C 34327.3 hPa East 17.9 km/h 17.9 km/h 60 % 0 mm
19:37 -2.7 °C -7.3 °C 34327.3 hPa ESE 20.9 km/h 20.9 km/h 61 % 0 mm
19:42 -2.8 °C -7.1 °C 34327.3 hPa East 20.9 km/h 20.9 km/h 63 % 0 mm
19:47 -2.9 °C -7.1 °C 34327.3 hPa ESE 23.8 km/h 23.8 km/h 64 % 0 mm
19:52 -2.9 °C -7.1 °C 34327.3 hPa ESE 12.7 km/h 12.7 km/h 64 % 0 mm
19:57 -3 °C -7.1 °C 34327.3 hPa ESE 9 km/h 9 km/h 64 % 0 mm
20:02 -3.1 °C -7.3 °C 34327.3 hPa ENE 6 km/h   63 % 0 mm
20:07 -3.1 °C -7.2 °C 34327.3 hPa ESE 9 km/h 9 km/h 64 % 0 mm
20:12 -3.1 °C -7.2 °C 34361.1 hPa NE 6 km/h 6 km/h 64 % 0 mm
20:15 -4.3 °C -6.9 °C 34361.1 hPa East 5.1 km/h 5.1 km/h 75 % 0 mm
20:17 -3.1 °C -7.2 °C 34361.1 hPa ENE 6 km/h 6 km/h 64 % 0 mm
20:22 -3.2 °C -7.3 °C 34361.1 hPa ENE 6 km/h 6 km/h 64 % 0 mm
20:25 -4.4 °C -7 °C 34361.1 hPa East 5.1 km/h 5.1 km/h 75 % 0 mm
20:27 -3.2 °C -7.3 °C 34361.1 hPa NE 3.1 km/h 3.7 km/h 64 % 0 mm
20:32 -3.2 °C -7.3 °C 34361.1 hPa Calm     64 % 0 mm
20:35 -4.4 °C -7.1 °C 34361.1 hPa ENE 5.1 km/h 7.7 km/h 75 % 0 mm
20:37 -3.2 °C -7.3 °C 34361.1 hPa WSW 6 km/h 6 km/h 64 % 0 mm
20:42 -3.2 °C -7.3 °C 34361.1 hPa WSW 9 km/h 9 km/h 64 % 0 mm
20:45 -4.4 °C -6.9 °C 34327.3 hPa East 2.6 km/h 7.7 km/h 76 % 0 mm
20:47 -3.2 °C -7.3 °C 34361.1 hPa SW 9 km/h 9 km/h 64 % 0 mm
20:52 -3.2 °C -7.3 °C 34361.1 hPa SW 9.3 km/h 9.3 km/h 64 % 0 mm
20:55 -4.5 °C -7 °C 34327.3 hPa Calm   7.7 km/h 76 % 0 mm
20:57 -3.2 °C -7.2 °C 34361.1 hPa SW 6 km/h 6 km/h 65 % 0 mm
21:02 -3.3 °C -7.2 °C 34361.1 hPa SW 6 km/h 6 km/h 65 % 0 mm
21:05 -4.5 °C -7.1 °C 34361.1 hPa NNE 2.6 km/h 5.1 km/h 75 % 0 mm
21:07 -3.3 °C -7.3 °C 34361.1 hPa SW 6 km/h 6 km/h 65 % 0 mm
21:12 -3.3 °C -7.3 °C 34361.1 hPa SW 6 km/h 6 km/h 65 % 0 mm
21:15 -4.6 °C -7.1 °C 34361.1 hPa Calm   5.1 km/h 76 % 0 mm
21:17 -3.4 °C -7.2 °C 34361.1 hPa SW 6.8 km/h 6.8 km/h 66 % 0 mm
21:22 -3.4 °C -7.3 °C 34361.1 hPa WSW 6.8 km/h 6.8 km/h 66 % 0 mm
21:25 -4.6 °C -7.1 °C 34361.1 hPa West 5.1 km/h 5.1 km/h 76 % 0 mm
21:27 -3.5 °C -7.3 °C 34361.1 hPa SW 6 km/h 6 km/h 66 % 0 mm
21:32 -3.5 °C -7.3 °C 34361.1 hPa SW 9 km/h 9 km/h 66 % 0 mm
21:35 -4.6 °C -7 °C 34361.1 hPa Calm   2.6 km/h 77 % 0 mm
21:37 -3.6 °C -7.3 °C 34361.1 hPa SW 6.8 km/h 6.8 km/h 67 % 0 mm
21:42 -3.7 °C -7.3 °C 34395 hPa WSW 9 km/h 9 km/h 67 % 0 mm
21:43 -3.7 °C -7.3 °C 34395 hPa West 9 km/h 9 km/h 67 % 0 mm
21:45 -4.6 °C -7 °C 34361.1 hPa Calm     77 % 0 mm
21:48 -3.7 °C -7.4 °C 34395 hPa SW 11.9 km/h 11.9 km/h 67 % 0 mm
21:53 -3.8 °C -7.4 °C 34395 hPa SW 15 km/h 15 km/h 67 % 0 mm
21:55 -4.7 °C -7.1 °C 34361.1 hPa Calm     77 % 0 mm
21:58 -3.8 °C -7.3 °C 34395 hPa SW 9 km/h 9 km/h 68 % 0 mm
22:03 -3.8 °C -7.3 °C 34395 hPa SW 6 km/h   68 % 0 mm
22:05 -4.8 °C -7.2 °C 34361.1 hPa Calm   5.1 km/h 77 % 0 mm
22:08 -3.9 °C -7.4 °C 34395 hPa SW 6 km/h 6 km/h 68 % 0 mm
22:13 -3.9 °C -7.4 °C 34395 hPa SW 6 km/h   68 % 0 mm
22:15 -4.9 °C -7.3 °C 34361.1 hPa Calm     77 % 0 mm
22:18 -3.9 °C -7.3 °C 34395 hPa West 9 km/h 9 km/h 69 % 0 mm
22:23 -3.9 °C -7.2 °C 34395 hPa SW 6 km/h 6 km/h 70 % 0 mm
22:25 -4.9 °C -7.3 °C 34361.1 hPa Calm   7.7 km/h 77 % 0 mm
22:28 -4 °C -7.3 °C 34361.1 hPa West 6 km/h 6 km/h 70 % 0 mm
22:33 -4 °C -7.3 °C 34361.1 hPa WSW 6 km/h 6 km/h 70 % 0 mm
22:35 -4.9 °C -7.2 °C 34361.1 hPa Calm   5.1 km/h 78 % 0 mm
22:38 -4.1 °C -7.3 °C 34361.1 hPa West 6 km/h 6 km/h 70 % 0 mm
22:43 -4.1 °C -7.2 °C 34395 hPa SW 3.1 km/h   71 % 0 mm
22:45 -4.9 °C -7.3 °C 34327.3 hPa SW 2.6 km/h 5.1 km/h 77 % 0 mm
22:48 -4.2 °C -7.3 °C 34395 hPa SW 3.1 km/h   71 % 0 mm
22:53 -4.2 °C -7.3 °C 34395 hPa South 3.1 km/h   71 % 0 mm
22:55 -5 °C -7.3 °C 34327.3 hPa SW 2.6 km/h 5.1 km/h 78 % 0 mm
22:58 -4.2 °C -7.3 °C 34361.1 hPa SSE 3.1 km/h 3.1 km/h 71 % 0 mm
23:03 -4.3 °C -7.4 °C 34361.1 hPa Calm     71 % 0 mm
23:05 -5.1 °C -7.3 °C 34327.3 hPa Calm   2.6 km/h 79 % 0 mm
23:08 -4.3 °C -7.3 °C 34361.1 hPa SSE 3.1 km/h   72 % 0 mm
23:13 -4.3 °C -7.3 °C 34361.1 hPa Calm     72 % 0 mm
23:15 -5.1 °C -7.3 °C 34327.3 hPa SW 2.6 km/h 5.1 km/h 79 % 0 mm
23:18 -4.3 °C -7.1 °C 34361.1 hPa South 3.1 km/h   73 % 0 mm
23:23 -4.3 °C -7.1 °C 34361.1 hPa Calm     73 % 0 mm
23:25 -5.2 °C -7.2 °C 34327.3 hPa SW 2.6 km/h 5.1 km/h 80 % 0 mm
23:28 -4.3 °C -7.1 °C 34361.1 hPa ENE 4.2 km/h   73 % 0 mm
23:33 -4.3 °C -7.2 °C 34361.1 hPa ENE 3.1 km/h 3.7 km/h 73 % 0 mm
23:35 -5.2 °C -7.2 °C 34327.3 hPa Calm   5.1 km/h 80 % 0 mm
23:38 -4.3 °C -7.2 °C 34361.1 hPa Calm     73 % 0 mm
23:43 -4.4 °C -7.3 °C 34361.1 hPa Calm     73 % 0 mm
23:45 -5.2 °C -7.1 °C 34327.3 hPa Calm   2.6 km/h 81 % 0 mm
23:48 -4.4 °C -7.3 °C 34361.1 hPa ENE 3.1 km/h   73 % 0 mm
23:53 -4.4 °C -7.3 °C 34361.1 hPa Calm     73 % 0 mm
23:55 -5.2 °C -7.1 °C 34327.3 hPa ESE 2.6 km/h 2.6 km/h 81 % 0 mm
23:58 -4.4 °C -7.1 °C 34361.1 hPa ENE 3.1 km/h   74 % 0 mm
Meteo Sesrovires
Elogis d' Weather Underground - 4 mb

Guio original per  Jim McMurry - jmcmurry@mwt.net Adaptat per a la plantilla per  Wim van der Kuil - Leuven-Template.eu

Trobareu la nostra informacio del temps tambe a:

Weather Underground

AWEKAS